Time;durP1;ratioP1;P1;durP2;ratioP2;P2;SDS_P1;SDS_P2;PMS_P1;PMS_P2;Temp;Humidity;BMP_temperature;BMP_pressure;BME280_temperature;BME280_humidity;BME280_pressure;Samples;Min_cycle;Max_cycle;Signal;HPM_P1;HPM_P2
2024/02/04 00:01:45;;;;;;;51.05;7.05;;;;;;;;;;5051718;28;20082;-42
2024/02/04 00:04:12;;;;;;;77.40;7.88;;;;;;;;;;5069607;28;20039;-40
2024/02/04 00:06:39;;;;;;;55.50;7.50;;;;;;;;;;5071464;28;20068;-42
2024/02/04 00:09:06;;;;;;;58.65;6.05;;;;;;;;;;5071447;28;20048;-43
2024/02/04 00:11:34;;;;;;;43.92;6.15;;;;;;;;;;5051335;28;20123;-40
2024/02/04 00:14:02;;;;;;;54.03;6.20;;;;;;;;;;5048999;28;20437;-43
2024/02/04 00:16:29;;;;;;;44.90;6.22;;;;;;;;;;5069286;28;20383;-41
2024/02/04 00:18:56;;;;;;;67.90;8.40;;;;;;;;;;5070608;28;20470;-40
2024/02/04 00:21:23;;;;;;;47.97;6.43;;;;;;;;;;5071063;28;20494;-43
2024/02/04 00:23:50;;;;;;;69.18;7.88;;;;;;;;;;5070580;28;20089;-40
2024/02/04 00:26:17;;;;;;;91.30;10.18;;;;;;;;;;5071457;28;20024;-42
2024/02/04 00:28:44;;;;;;;83.80;9.75;;;;;;;;;;5071250;28;20025;-42
2024/02/04 00:31:11;;;;;;;141.45;14.90;;;;;;;;;;5051495;28;20409;-40
2024/02/04 00:33:38;;;;;;;123.95;13.10;;;;;;;;;;5071090;28;20033;-42
2024/02/04 00:36:05;;;;;;;132.43;14.90;;;;;;;;;;5053012;28;20060;-42
2024/02/04 00:38:32;;;;;;;131.77;14.30;;;;;;;;;;5068355;28;20540;-42
2024/02/04 00:40:59;;;;;;;100.65;11.73;;;;;;;;;;5059130;28;20094;-42
2024/02/04 00:43:26;;;;;;;94.25;10.77;;;;;;;;;;5059191;28;20024;-41
2024/02/04 00:45:56;;;;;;;125.85;13.32;;;;;;;;;;5070484;28;20032;-42
2024/02/04 00:48:23;;;;;;;103.68;12.45;;;;;;;;;;5070161;28;20037;-42
2024/02/04 00:50:50;;;;;;;108.03;13.48;;;;;;;;;;5068293;28;20029;-40
2024/02/04 00:53:17;;;;;;;116.40;12.85;;;;;;;;;;5070803;28;20024;-42
2024/02/04 00:55:44;;;;;;;116.35;13.20;;;;;;;;;;5070462;28;20031;-42
2024/02/04 00:58:11;;;;;;;102.63;13.30;;;;;;;;;;5059086;28;20063;-42
2024/02/04 01:00:38;;;;;;;138.75;14.20;;;;;;;;;;5060497;28;20114;-42
2024/02/04 01:03:05;;;;;;;109.18;12.20;;;;;;;;;;5063683;28;20025;-42
2024/02/04 01:05:32;;;;;;;118.95;14.85;;;;;;;;;;5064131;28;20032;-41
2024/02/04 01:08:00;;;;;;;129.98;13.88;;;;;;;;;;5070509;28;20480;-40
2024/02/04 01:10:27;;;;;;;152.70;15.52;;;;;;;;;;5056829;28;20037;-42
2024/02/04 01:12:54;;;;;;;159.68;17.20;;;;;;;;;;5062014;28;20052;-41
2024/02/04 01:15:21;;;;;;;127.32;14.63;;;;;;;;;;5053169;28;20071;-40
2024/02/04 01:17:48;;;;;;;145.68;15.02;;;;;;;;;;5061525;28;20098;-41
2024/02/04 01:20:15;;;;;;;152.48;16.33;;;;;;;;;;5057277;28;20031;-40
2024/02/04 01:22:42;;;;;;;157.40;16.02;;;;;;;;;;5059083;28;20120;-41
2024/02/04 01:25:09;;;;;;;131.32;15.00;;;;;;;;;;5054908;28;20083;-41
2024/02/04 01:27:36;;;;;;;116.82;13.82;;;;;;;;;;5053037;28;20044;-41
2024/02/04 01:30:03;;;;;;;117.70;14.07;;;;;;;;;;5052293;28;20049;-41
2024/02/04 01:32:30;;;;;;;105.35;14.52;;;;;;;;;;5058625;28;20025;-40
2024/02/04 01:34:58;;;;;;;164.07;18.08;;;;;;;;;;5071483;28;20043;-41
2024/02/04 01:37:25;;;;;;;152.40;17.08;;;;;;;;;;5065432;28;20029;-42
2024/02/04 01:39:52;;;;;;;191.85;17.35;;;;;;;;;;5053777;28;20098;-42
2024/02/04 01:42:18;;;;;;;194.27;19.10;;;;;;;;;;5058305;28;20028;-42
2024/02/04 01:44:45;;;;;;;219.80;22.17;;;;;;;;;;5059737;28;20025;-42
2024/02/04 01:47:12;;;;;;;199.07;19.33;;;;;;;;;;5064508;28;20040;-42
2024/02/04 01:49:40;;;;;;;185.00;18.92;;;;;;;;;;5056364;28;21378;-42
2024/02/04 01:52:08;;;;;;;153.43;16.50;;;;;;;;;;5066170;28;20025;-42
2024/02/04 01:54:35;;;;;;;126.53;14.77;;;;;;;;;;5053534;28;20032;-40
2024/02/04 01:57:03;;;;;;;121.43;13.63;;;;;;;;;;5059327;28;20028;-41
2024/02/04 01:59:31;;;;;;;119.35;12.98;;;;;;;;;;5073562;28;20037;-42
2024/02/04 02:02:01;;;;;;;116.90;13.88;;;;;;;;;;5067207;28;20029;-42
2024/02/04 02:04:28;;;;;;;104.78;13.50;;;;;;;;;;5067190;28;20032;-42
2024/02/04 02:06:56;;;;;;;107.88;11.50;;;;;;;;;;5066210;28;20025;-42
2024/02/04 02:09:25;;;;;;;136.93;14.38;;;;;;;;;;5054051;28;20390;-41
2024/02/04 02:12:02;;;;;;;119.50;13.38;;;;;;;;;;5069883;28;20036;-42
2024/02/04 02:14:31;;;;;;;133.27;13.95;;;;;;;;;;5053878;28;20056;-41
2024/02/04 02:17:03;;;;;;;106.57;12.77;;;;;;;;;;5057903;28;20035;-42
2024/02/04 02:19:37;;;;;;;109.15;12.52;;;;;;;;;;5072924;28;20048;-40
2024/02/04 02:22:07;;;;;;;102.65;12.65;;;;;;;;;;5066203;28;20047;-41
2024/02/04 02:24:35;;;;;;;102.65;10.82;;;;;;;;;;5053090;28;20360;-41
2024/02/04 02:27:02;;;;;;;111.70;12.20;;;;;;;;;;5060596;28;20031;-41
2024/02/04 02:29:29;;;;;;;89.50;10.90;;;;;;;;;;5060252;28;20132;-41
2024/02/04 02:31:56;;;;;;;89.60;10.65;;;;;;;;;;5057380;28;20421;-41
2024/02/04 02:34:23;;;;;;;82.88;11.52;;;;;;;;;;5054632;28;20025;-41
2024/02/04 02:37:00;;;;;;;92.35;10.75;;;;;;;;;;5052559;28;20021;-41
2024/02/04 02:39:33;;;;;;;66.20;9.23;;;;;;;;;;5052619;28;20032;-41
2024/02/04 02:42:00;;;;;;;65.05;8.45;;;;;;;;;;5054883;28;20044;-41
2024/02/04 02:44:28;;;;;;;82.35;9.95;;;;;;;;;;5061294;28;20123;-41
2024/02/04 02:46:57;;;;;;;57.55;7.90;;;;;;;;;;5061654;28;20037;-41
2024/02/04 02:49:24;;;;;;;63.45;8.77;;;;;;;;;;5069543;28;20041;-41
2024/02/04 02:51:51;;;;;;;63.20;8.40;;;;;;;;;;5062418;28;20548;-42
2024/02/04 02:54:18;;;;;;;62.00;8.75;;;;;;;;;;5051119;28;20028;-42
2024/02/04 02:56:45;;;;;;;62.33;9.30;;;;;;;;;;5052518;28;20441;-41
2024/02/04 02:59:12;;;;;;;57.08;8.50;;;;;;;;;;5069394;28;20024;-41
2024/02/04 03:01:42;;;;;;;59.47;8.25;;;;;;;;;;5061727;28;20041;-42
2024/02/04 03:04:09;;;;;;;58.25;8.20;;;;;;;;;;5057005;28;20123;-41
2024/02/04 03:06:36;;;;;;;55.97;7.90;;;;;;;;;;5072448;28;20020;-41
2024/02/04 03:09:03;;;;;;;58.22;8.05;;;;;;;;;;5057767;28;20036;-41
2024/02/04 03:11:30;;;;;;;52.17;7.95;;;;;;;;;;5053125;28;20471;-40
2024/02/04 03:13:57;;;;;;;56.03;7.75;;;;;;;;;;5058224;28;20102;-40
2024/02/04 03:16:24;;;;;;;57.67;8.13;;;;;;;;;;5058388;28;20033;-42
2024/02/04 03:18:52;;;;;;;56.40;8.20;;;;;;;;;;5051121;28;20090;-41
2024/02/04 03:21:20;;;;;;;51.25;7.35;;;;;;;;;;5045397;28;20036;-43
2024/02/04 03:23:47;;;;;;;57.47;7.57;;;;;;;;;;5051317;28;20487;-43
2024/02/04 03:26:20;;;;;;;50.65;8.02;;;;;;;;;;5060408;28;20028;-43
2024/02/04 03:28:47;;;;;;;43.92;7.38;;;;;;;;;;5068081;28;20116;-41
2024/02/04 03:31:20;;;;;;;55.50;7.38;;;;;;;;;;5059538;28;20506;-43
2024/02/04 03:33:48;;;;;;;47.88;7.72;;;;;;;;;;5053619;28;20111;-43
2024/02/04 03:36:17;;;;;;;52.70;8.10;;;;;;;;;;5061013;28;20082;-43
2024/02/04 03:38:44;;;;;;;58.38;7.15;;;;;;;;;;5068877;28;20473;-42
2024/02/04 03:41:11;;;;;;;52.58;7.15;;;;;;;;;;5060011;28;20068;-45
2024/02/04 03:43:38;;;;;;;45.33;6.45;;;;;;;;;;5053308;28;20025;-46
2024/02/04 03:46:05;;;;;;;43.17;7.03;;;;;;;;;;5057177;28;20475;-44
2024/02/04 03:48:33;;;;;;;49.38;6.75;;;;;;;;;;5060701;28;20159;-43
2024/02/04 03:51:01;;;;;;;59.03;7.32;;;;;;;;;;5060174;28;21133;-46
2024/02/04 03:53:28;;;;;;;65.75;7.88;;;;;;;;;;5061590;28;20032;-44
2024/02/04 03:55:55;;;;;;;55.83;7.43;;;;;;;;;;5072322;28;20085;-45
2024/02/04 03:58:29;;;;;;;50.10;6.90;;;;;;;;;;5068945;28;20051;-43
2024/02/04 04:00:56;;;;;;;43.63;6.70;;;;;;;;;;5057065;28;20103;-45
2024/02/04 04:03:24;;;;;;;40.15;6.60;;;;;;;;;;5047843;28;20029;-45
2024/02/04 04:05:51;;;;;;;37.75;6.55;;;;;;;;;;5054981;28;20032;-45
2024/02/04 04:08:18;;;;;;;39.80;6.03;;;;;;;;;;5049472;28;20033;-45
2024/02/04 04:10:48;;;;;;;36.50;5.43;;;;;;;;;;5049003;28;20043;-45
2024/02/04 04:13:15;;;;;;;48.85;6.60;;;;;;;;;;5057461;28;20124;-43
2024/02/04 04:15:42;;;;;;;50.78;6.57;;;;;;;;;;5068017;28;20033;-46
2024/02/04 04:18:12;;;;;;;48.63;6.15;;;;;;;;;;5070844;28;20043;-47
2024/02/04 04:20:42;;;;;;;42.03;6.75;;;;;;;;;;5053340;28;20031;-47
2024/02/04 04:23:09;;;;;;;48.47;6.40;;;;;;;;;;5071338;28;20039;-46
2024/02/04 04:25:36;;;;;;;39.75;6.38;;;;;;;;;;5071368;28;20025;-46
2024/02/04 04:28:03;;;;;;;40.30;6.80;;;;;;;;;;5071214;28;20021;-45
2024/02/04 04:30:30;;;;;;;46.22;6.28;;;;;;;;;;5071147;28;20028;-46
2024/02/04 04:32:58;;;;;;;40.78;5.50;;;;;;;;;;5071303;28;20487;-46
2024/02/04 04:35:25;;;;;;;34.50;5.55;;;;;;;;;;5071189;28;20025;-46
2024/02/04 04:37:52;;;;;;;47.17;7.20;;;;;;;;;;5071240;28;20555;-45
2024/02/04 04:40:19;;;;;;;48.28;5.80;;;;;;;;;;5071022;28;20028;-46
2024/02/04 04:42:46;;;;;;;48.30;6.43;;;;;;;;;;5071132;28;20036;-46
2024/02/04 04:45:14;;;;;;;47.15;6.45;;;;;;;;;;5071153;28;20028;-46
2024/02/04 04:47:41;;;;;;;38.70;6.55;;;;;;;;;;5070944;28;20024;-46
2024/02/04 04:50:09;;;;;;;34.15;5.93;;;;;;;;;;5070818;28;20033;-46
2024/02/04 04:52:36;;;;;;;32.60;5.40;;;;;;;;;;5071048;28;20039;-46
2024/02/04 04:55:03;;;;;;;37.53;6.13;;;;;;;;;;5071036;28;20032;-46
2024/02/04 04:57:30;;;;;;;48.83;6.68;;;;;;;;;;5071007;28;20028;-46
2024/02/04 05:00:00;;;;;;;40.72;5.53;;;;;;;;;;5070934;28;20048;-46
2024/02/04 05:02:27;;;;;;;39.20;6.05;;;;;;;;;;5071025;28;20044;-47
2024/02/04 05:04:54;;;;;;;31.80;5.40;;;;;;;;;;5071029;28;20085;-46
2024/02/04 05:07:21;;;;;;;26.67;5.10;;;;;;;;;;5070703;28;20033;-46
2024/02/04 05:09:48;;;;;;;31.23;5.60;;;;;;;;;;5072124;28;20040;-46
2024/02/04 05:12:15;;;;;;;30.83;5.65;;;;;;;;;;5056531;28;20394;-47
2024/02/04 05:14:45;;;;;;;31.02;5.15;;;;;;;;;;5073801;28;20510;-45
2024/02/04 05:17:15;;;;;;;28.40;5.47;;;;;;;;;;5073146;28;20117;-45
2024/02/04 05:19:45;;;;;;;32.05;5.10;;;;;;;;;;5074421;28;20025;-44
2024/02/04 05:22:15;;;;;;;34.53;5.43;;;;;;;;;;5074354;28;20394;-44
2024/02/04 05:24:46;;;;;;;27.17;4.85;;;;;;;;;;5056219;28;20035;-44
2024/02/04 05:27:13;;;;;;;22.90;5.53;;;;;;;;;;5052463;28;20032;-44
2024/02/04 05:29:40;;;;;;;29.95;5.13;;;;;;;;;;5065540;28;20033;-44
2024/02/04 05:32:08;;;;;;;40.55;6.00;;;;;;;;;;5056535;28;20078;-45
2024/02/04 05:34:35;;;;;;;37.38;5.93;;;;;;;;;;5056050;28;20115;-44
2024/02/04 05:37:02;;;;;;;33.33;5.60;;;;;;;;;;5074180;28;20021;-44
2024/02/04 05:39:29;;;;;;;37.65;5.90;;;;;;;;;;5074298;28;20060;-44
2024/02/04 05:41:56;;;;;;;28.77;4.82;;;;;;;;;;5074177;28;20111;-44
2024/02/04 05:44:23;;;;;;;30.40;5.72;;;;;;;;;;5074265;28;20387;-44
2024/02/04 05:46:50;;;;;;;27.92;5.38;;;;;;;;;;5074057;28;20436;-44
2024/02/04 05:49:17;;;;;;;36.60;5.43;;;;;;;;;;5074138;28;20036;-45
2024/02/04 05:51:52;;;;;;;34.70;5.38;;;;;;;;;;5074001;28;20036;-44
2024/02/04 05:54:19;;;;;;;37.53;5.78;;;;;;;;;;5074047;28;20527;-45
2024/02/04 05:56:46;;;;;;;38.08;5.78;;;;;;;;;;5073974;28;20386;-44
2024/02/04 05:59:13;;;;;;;31.33;4.75;;;;;;;;;;5073905;28;20099;-44
2024/02/04 06:01:40;;;;;;;32.55;5.50;;;;;;;;;;5072406;28;20072;-45
2024/02/04 06:04:06;;;;;;;32.67;5.50;;;;;;;;;;5073634;28;20472;-47
2024/02/04 06:06:33;;;;;;;39.33;6.05;;;;;;;;;;5073702;28;20051;-45
2024/02/04 06:09:00;;;;;;;32.20;5.93;;;;;;;;;;5073825;28;20016;-45
2024/02/04 06:11:38;;;;;;;26.13;5.20;;;;;;;;;;5073751;28;20059;-45
2024/02/04 06:14:05;;;;;;;28.25;5.43;;;;;;;;;;5073527;28;20044;-45
2024/02/04 06:16:36;;;;;;;32.85;6.00;;;;;;;;;;5073619;28;20430;-45
2024/02/04 06:19:03;;;;;;;22.87;4.67;;;;;;;;;;5073629;28;20531;-44
2024/02/04 06:21:30;;;;;;;24.30;4.97;;;;;;;;;;5072810;28;20279;-45
2024/02/04 06:23:57;;;;;;;34.65;5.93;;;;;;;;;;5073438;28;20036;-44
2024/02/04 06:26:25;;;;;;;32.85;5.85;;;;;;;;;;5073308;28;20034;-39
2024/02/04 06:28:51;;;;;;;26.35;5.57;;;;;;;;;;5073460;28;20448;-39
2024/02/04 06:31:19;;;;;;;27.65;5.30;;;;;;;;;;5073369;28;20024;-39
2024/02/04 06:33:45;;;;;;;27.90;5.60;;;;;;;;;;5073361;28;20048;-39
2024/02/04 06:36:12;;;;;;;28.95;5.20;;;;;;;;;;5073195;28;20024;-39
2024/02/04 06:38:39;;;;;;;23.73;5.00;;;;;;;;;;5073210;28;20024;-39
2024/02/04 06:41:06;;;;;;;31.95;5.47;;;;;;;;;;5073090;28;20074;-39
2024/02/04 06:43:33;;;;;;;26.25;5.30;;;;;;;;;;5073053;28;20078;-38
2024/02/04 06:46:00;;;;;;;22.85;5.25;;;;;;;;;;5073041;28;20021;-38
2024/02/04 06:48:27;;;;;;;23.33;4.25;;;;;;;;;;5072973;28;20017;-39
2024/02/04 06:50:54;;;;;;;26.33;5.10;;;;;;;;;;5072973;28;20024;-38
2024/02/04 06:53:21;;;;;;;28.20;4.60;;;;;;;;;;5072793;28;20383;-39
2024/02/04 06:55:48;;;;;;;27.17;4.32;;;;;;;;;;5072872;28;20052;-38
2024/02/04 06:58:15;;;;;;;36.85;5.90;;;;;;;;;;5072591;28;20383;-38
2024/02/04 07:00:42;;;;;;;23.08;5.05;;;;;;;;;;5072757;28;20025;-38
2024/02/04 07:03:09;;;;;;;24.15;4.75;;;;;;;;;;5072682;28;20021;-38
2024/02/04 07:05:36;;;;;;;31.52;4.85;;;;;;;;;;5072562;28;20020;-38
2024/02/04 07:08:03;;;;;;;27.15;4.88;;;;;;;;;;5072583;28;20024;-39
2024/02/04 07:10:30;;;;;;;30.25;5.22;;;;;;;;;;5072563;28;20020;-38
2024/02/04 07:12:57;;;;;;;22.02;4.43;;;;;;;;;;5072296;28;20049;-38
2024/02/04 07:15:24;;;;;;;25.88;4.63;;;;;;;;;;5072413;28;20036;-39
2024/02/04 07:17:51;;;;;;;23.42;4.60;;;;;;;;;;5072355;28;20028;-39
2024/02/04 07:20:19;;;;;;;20.20;3.50;;;;;;;;;;5072409;28;20020;-38
2024/02/04 07:22:46;;;;;;;17.88;4.18;;;;;;;;;;5072183;28;20041;-39
2024/02/04 07:25:13;;;;;;;25.55;4.38;;;;;;;;;;5072202;28;20077;-39
2024/02/04 07:27:40;;;;;;;24.15;4.10;;;;;;;;;;5072279;28;20420;-38
2024/02/04 07:30:07;;;;;;;18.80;4.50;;;;;;;;;;5072059;28;20036;-39
2024/02/04 07:32:36;;;;;;;19.98;4.13;;;;;;;;;;5071270;28;20030;-38
2024/02/04 07:35:03;;;;;;;25.98;4.95;;;;;;;;;;5072054;28;20025;-38
2024/02/04 07:37:30;;;;;;;19.55;4.22;;;;;;;;;;5071765;28;20127;-38
2024/02/04 07:39:57;;;;;;;22.67;4.03;;;;;;;;;;5071981;28;20035;-39
2024/02/04 07:42:24;;;;;;;21.02;4.53;;;;;;;;;;5071883;28;20032;-38
2024/02/04 07:44:51;;;;;;;24.80;4.30;;;;;;;;;;5072001;28;20082;-38
2024/02/04 07:47:21;;;;;;;21.77;4.40;;;;;;;;;;5071783;28;20052;-38
2024/02/04 07:49:48;;;;;;;21.17;4.60;;;;;;;;;;5071827;28;20020;-39
2024/02/04 07:52:15;;;;;;;21.38;4.30;;;;;;;;;;5071938;28;20020;-38
2024/02/04 07:54:46;;;;;;;25.50;4.78;;;;;;;;;;5071884;28;20031;-38
2024/02/04 07:57:13;;;;;;;20.92;4.15;;;;;;;;;;5071608;28;20082;-38
2024/02/04 07:59:40;;;;;;;18.90;4.07;;;;;;;;;;5071817;28;20027;-38
2024/02/04 08:02:11;;;;;;;16.83;4.03;;;;;;;;;;5071734;28;20052;-38
2024/02/04 08:04:41;;;;;;;18.40;3.78;;;;;;;;;;5071711;28;20029;-38
2024/02/04 08:07:08;;;;;;;18.08;3.85;;;;;;;;;;5071427;28;20028;-38
2024/02/04 08:09:35;;;;;;;19.38;4.20;;;;;;;;;;5071559;28;20025;-38
2024/02/04 08:12:03;;;;;;;20.45;4.82;;;;;;;;;;5071626;28;20024;-39
2024/02/04 08:14:30;;;;;;;18.90;4.30;;;;;;;;;;5071357;28;20131;-38
2024/02/04 08:16:57;;;;;;;19.85;3.38;;;;;;;;;;5071449;28;20616;-39
2024/02/04 08:19:24;;;;;;;16.92;3.90;;;;;;;;;;5071456;28;20025;-38
2024/02/04 08:21:51;;;;;;;18.30;3.65;;;;;;;;;;5071435;28;20039;-39
2024/02/04 08:24:18;;;;;;;17.95;4.28;;;;;;;;;;5071519;28;20379;-38
2024/02/04 08:26:45;;;;;;;29.20;4.30;;;;;;;;;;5071124;28;20025;-38
2024/02/04 08:29:12;;;;;;;15.35;3.88;;;;;;;;;;5071467;28;20044;-38
2024/02/04 08:31:38;;;;;;;18.90;3.80;;;;;;;;;;5053292;28;20036;-38
2024/02/04 08:34:07;;;;;;;22.05;4.32;;;;;;;;;;5071365;28;20024;-38
2024/02/04 08:36:34;;;;;;;20.65;4.05;;;;;;;;;;5071519;28;20056;-39
2024/02/04 08:39:01;;;;;;;24.92;3.83;;;;;;;;;;5071443;28;20074;-38
2024/02/04 08:41:27;;;;;;;26.15;4.80;;;;;;;;;;5071235;28;20112;-39
2024/02/04 08:43:54;;;;;;;24.05;4.18;;;;;;;;;;5072503;28;20052;-39
2024/02/04 08:46:21;;;;;;;22.00;3.97;;;;;;;;;;5075333;28;20087;-38
2024/02/04 08:48:48;;;;;;;15.73;3.72;;;;;;;;;;5075378;28;20021;-38
2024/02/04 08:51:18;;;;;;;21.95;4.40;;;;;;;;;;5075338;28;20099;-38
2024/02/04 08:53:45;;;;;;;16.52;3.78;;;;;;;;;;5075076;28;20111;-38
2024/02/04 08:56:12;;;;;;;14.02;3.58;;;;;;;;;;5074913;28;20452;-38
2024/02/04 08:58:39;;;;;;;24.50;3.90;;;;;;;;;;5075216;28;20454;-38
2024/02/04 09:01:06;;;;;;;18.80;3.78;;;;;;;;;;5075103;28;20051;-38
2024/02/04 09:03:34;;;;;;;17.10;3.30;;;;;;;;;;5075031;28;20021;-38
2024/02/04 09:06:01;;;;;;;24.50;3.83;;;;;;;;;;5074855;28;20032;-38
2024/02/04 09:08:28;;;;;;;24.73;4.05;;;;;;;;;;5074795;28;20036;-38
2024/02/04 09:10:54;;;;;;;20.17;3.28;;;;;;;;;;5074975;28;20478;-38
2024/02/04 09:13:21;;;;;;;18.60;3.17;;;;;;;;;;5074586;28;20063;-38
2024/02/04 09:15:50;;;;;;;15.70;3.25;;;;;;;;;;5074659;28;20024;-38
2024/02/04 09:18:17;;;;;;;13.68;3.42;;;;;;;;;;5074757;28;20025;-38
2024/02/04 09:20:44;;;;;;;16.17;4.07;;;;;;;;;;5074733;28;20021;-38
2024/02/04 09:23:11;;;;;;;11.05;3.20;;;;;;;;;;5074523;28;20070;-38
2024/02/04 09:25:37;;;;;;;21.40;3.97;;;;;;;;;;5074688;28;20039;-39
2024/02/04 09:28:04;;;;;;;21.08;3.97;;;;;;;;;;5074440;28;20028;-39
2024/02/04 09:30:31;;;;;;;22.13;4.00;;;;;;;;;;5074552;28;20021;-38
2024/02/04 09:32:58;;;;;;;19.45;3.95;;;;;;;;;;5074437;28;20147;-38
2024/02/04 09:35:25;;;;;;;22.08;3.90;;;;;;;;;;5074452;28;20028;-39
2024/02/04 09:37:52;;;;;;;18.20;3.88;;;;;;;;;;5074350;28;20490;-38
2024/02/04 09:40:19;;;;;;;21.88;3.78;;;;;;;;;;5056223;28;20058;-38
2024/02/04 09:42:46;;;;;;;18.58;3.90;;;;;;;;;;5074287;28;20028;-38
2024/02/04 09:45:15;;;;;;;19.60;3.85;;;;;;;;;;5074253;28;20815;-38
2024/02/04 09:47:43;;;;;;;23.30;3.72;;;;;;;;;;5072763;28;20492;-39
2024/02/04 09:50:10;;;;;;;17.13;3.85;;;;;;;;;;5054198;28;20036;-38
2024/02/04 09:52:43;;;;;;;20.48;3.70;;;;;;;;;;5054147;28;20025;-39
2024/02/04 09:55:11;;;;;;;20.85;4.05;;;;;;;;;;5053297;28;20075;-39
2024/02/04 09:57:38;;;;;;;16.50;3.80;;;;;;;;;;5054010;28;20050;-38
2024/02/04 10:00:05;;;;;;;19.55;3.55;;;;;;;;;;5054063;28;20043;-38
2024/02/04 10:02:33;;;;;;;18.92;4.00;;;;;;;;;;5070992;28;20071;-38
2024/02/04 10:05:00;;;;;;;20.10;4.47;;;;;;;;;;5055836;28;20035;-38
2024/02/04 10:07:27;;;;;;;24.48;4.30;;;;;;;;;;5073660;28;20035;-38
2024/02/04 10:09:54;;;;;;;24.80;4.40;;;;;;;;;;5073855;28;20378;-38
2024/02/04 10:12:21;;;;;;;27.42;4.53;;;;;;;;;;5073540;28;20024;-38
2024/02/04 10:14:48;;;;;;;29.02;5.00;;;;;;;;;;5073722;28;20082;-38
2024/02/04 10:17:16;;;;;;;26.30;4.90;;;;;;;;;;5073656;28;20059;-38
2024/02/04 10:19:43;;;;;;;25.88;4.60;;;;;;;;;;5073696;28;20027;-38
2024/02/04 10:22:10;;;;;;;24.35;5.00;;;;;;;;;;5073453;28;20029;-38
2024/02/04 10:24:37;;;;;;;26.70;5.03;;;;;;;;;;5073506;28;20512;-38
2024/02/04 10:27:05;;;;;;;30.30;6.78;;;;;;;;;;5073414;28;20023;-38
2024/02/04 10:29:32;;;;;;;25.85;6.07;;;;;;;;;;5073542;28;20021;-39
2024/02/04 10:31:59;;;;;;;30.23;7.90;;;;;;;;;;5073341;28;20075;-38
2024/02/04 10:34:29;;;;;;;26.50;7.22;;;;;;;;;;5073420;28;20067;-38
2024/02/04 10:36:59;;;;;;;25.65;6.53;;;;;;;;;;5073057;28;20032;-38
2024/02/04 10:39:26;;;;;;;26.17;6.25;;;;;;;;;;5073458;28;20025;-38
2024/02/04 10:41:53;;;;;;;20.70;5.68;;;;;;;;;;5073010;28;20112;-39
2024/02/04 10:44:24;;;;;;;19.45;4.95;;;;;;;;;;5063142;28;20033;-38
2024/02/04 10:46:51;;;;;;;22.85;5.22;;;;;;;;;;5052986;28;20029;-38
2024/02/04 10:49:20;;;;;;;20.65;4.90;;;;;;;;;;5052948;28;20021;-38
2024/02/04 10:51:47;;;;;;;18.85;4.70;;;;;;;;;;5053054;28;20036;-38
2024/02/04 10:54:18;;;;;;;21.70;4.75;;;;;;;;;;5055522;28;20382;-38
2024/02/04 10:56:46;;;;;;;22.48;5.53;;;;;;;;;;5061523;28;20105;-39
2024/02/04 10:59:17;;;;;;;18.42;4.50;;;;;;;;;;5074361;28;20016;-38
2024/02/04 11:01:48;;;;;;;14.07;4.00;;;;;;;;;;5052623;28;20033;-38
2024/02/04 11:04:16;;;;;;;21.10;4.22;;;;;;;;;;5052732;28;20050;-39
2024/02/04 11:06:43;;;;;;;20.05;4.20;;;;;;;;;;5059204;28;20098;-38
2024/02/04 11:09:10;;;;;;;11.05;3.30;;;;;;;;;;5072584;28;20027;-38
2024/02/04 11:11:37;;;;;;;12.55;3.45;;;;;;;;;;5072864;28;20020;-38
2024/02/04 11:14:09;;;;;;;13.40;3.38;;;;;;;;;;5080622;28;20127;-38
2024/02/04 11:16:39;;;;;;;16.85;3.20;;;;;;;;;;5082103;28;20035;-38
2024/02/04 11:19:13;;;;;;;17.48;3.97;;;;;;;;;;5080844;28;20024;-38
2024/02/04 11:21:55;;;;;;;15.75;3.72;;;;;;;;;;5080977;28;20040;-39
2024/02/04 11:24:25;;;;;;;16.80;3.42;;;;;;;;;;5050082;28;20513;-38
2024/02/04 11:26:52;;;;;;;26.38;3.63;;;;;;;;;;5092343;28;20393;-38
2024/02/04 11:29:19;;;;;;;28.65;4.28;;;;;;;;;;5082906;28;20028;-38
2024/02/04 11:31:46;;;;;;;22.08;3.20;;;;;;;;;;5081386;28;20027;-38
2024/02/04 11:34:14;;;;;;;14.18;2.80;;;;;;;;;;5082544;28;20093;-38
2024/02/04 11:36:41;;;;;;;15.52;3.15;;;;;;;;;;5079693;28;20107;-36
2024/02/04 11:39:22;;;;;;;17.77;3.17;;;;;;;;;;5072190;28;20025;-38
2024/02/04 11:41:49;;;;;;;16.73;3.28;;;;;;;;;;5072020;28;20111;-38
2024/02/04 11:44:23;;;;;;;20.65;3.00;;;;;;;;;;5074922;28;20031;-37
2024/02/04 11:46:51;;;;;;;19.23;3.88;;;;;;;;;;5092095;28;20031;-37
2024/02/04 11:49:22;;;;;;;17.35;3.10;;;;;;;;;;5092211;28;20040;-37
2024/02/04 11:51:49;;;;;;;20.45;3.05;;;;;;;;;;5092136;28;20020;-37
2024/02/04 11:54:19;;;;;;;15.50;2.53;;;;;;;;;;5092017;28;20127;-36
2024/02/04 11:56:52;;;;;;;13.18;3.17;;;;;;;;;;5091882;28;20032;-35
2024/02/04 11:59:23;;;;;;;10.30;3.03;;;;;;;;;;5091917;28;20028;-36
2024/02/04 12:01:51;;;;;;;17.35;2.97;;;;;;;;;;5092009;28;20375;-35
2024/02/04 12:04:18;;;;;;;18.48;2.92;;;;;;;;;;5091991;28;20028;-36
2024/02/04 12:06:45;;;;;;;23.52;3.70;;;;;;;;;;5091873;28;20020;-36
2024/02/04 12:09:12;;;;;;;14.82;3.70;;;;;;;;;;5091995;28;20086;-36
2024/02/04 12:11:40;;;;;;;19.55;3.33;;;;;;;;;;5091669;28;20032;-35
2024/02/04 12:14:08;;;;;;;13.45;3.15;;;;;;;;;;5091654;28;20125;-36
2024/02/04 12:16:36;;;;;;;13.82;2.85;;;;;;;;;;5091755;28;20457;-36
2024/02/04 12:19:04;;;;;;;17.25;3.15;;;;;;;;;;5091330;28;20020;-36
2024/02/04 12:21:31;;;;;;;17.92;3.35;;;;;;;;;;5091862;28;20028;-36
2024/02/04 12:23:58;;;;;;;17.15;3.15;;;;;;;;;;5091671;28;20077;-36
2024/02/04 12:26:26;;;;;;;14.13;2.83;;;;;;;;;;5091593;28;20103;-36
2024/02/04 12:28:54;;;;;;;20.77;3.45;;;;;;;;;;5091667;28;20028;-36
2024/02/04 12:31:22;;;;;;;15.10;2.60;;;;;;;;;;5091595;28;20028;-36
2024/02/04 12:33:59;;;;;;;18.27;2.88;;;;;;;;;;5091520;28;20024;-36
2024/02/04 12:36:30;;;;;;;19.08;3.35;;;;;;;;;;5091559;28;20359;-36
2024/02/04 12:38:58;;;;;;;18.25;2.90;;;;;;;;;;5091663;28;20047;-36
2024/02/04 12:41:26;;;;;;;13.35;2.88;;;;;;;;;;5091519;28;20024;-36
2024/02/04 12:43:57;;;;;;;14.65;2.75;;;;;;;;;;5091556;28;20024;-36
2024/02/04 12:46:24;;;;;;;16.33;2.67;;;;;;;;;;5079917;28;20104;-36
2024/02/04 12:48:55;;;;;;;16.85;2.72;;;;;;;;;;5059642;28;20028;-36
2024/02/04 12:51:29;;;;;;;17.85;3.00;;;;;;;;;;5060145;28;20013;-35
2024/02/04 12:54:09;;;;;;;7.63;2.42;;;;;;;;;;5059033;28;20028;-36
2024/02/04 12:56:45;;;;;;;13.90;2.78;;;;;;;;;;5058956;28;20074;-36
2024/02/04 12:59:13;;;;;;;12.73;2.90;;;;;;;;;;5061628;28;20107;-36
2024/02/04 13:01:40;;;;;;;10.63;2.60;;;;;;;;;;5060188;28;20398;-36
2024/02/04 13:04:07;;;;;;;30.35;3.42;;;;;;;;;;5054812;28;20029;-36
2024/02/04 13:06:39;;;;;;;11.57;2.70;;;;;;;;;;5050984;28;20541;-35
2024/02/04 13:09:07;;;;;;;13.90;2.35;;;;;;;;;;5053640;28;20056;-36
2024/02/04 13:11:34;;;;;;;19.67;3.00;;;;;;;;;;5070855;28;20028;-35
2024/02/04 13:14:01;;;;;;;17.55;2.88;;;;;;;;;;5070874;28;20060;-36
2024/02/04 13:16:30;;;;;;;27.13;3.63;;;;;;;;;;5063589;28;20203;-35
2024/02/04 13:18:57;;;;;;;16.83;2.63;;;;;;;;;;5061254;28;20387;-35
2024/02/04 13:21:24;;;;;;;15.02;2.55;;;;;;;;;;5059164;28;20060;-36
2024/02/04 13:23:51;;;;;;;12.90;2.55;;;;;;;;;;5060528;28;20390;-36
2024/02/04 13:26:18;;;;;;;13.93;2.50;;;;;;;;;;5061198;28;20020;-36
2024/02/04 13:28:45;;;;;;;10.00;2.05;;;;;;;;;;5059875;28;20390;-36
2024/02/04 13:31:12;;;;;;;17.45;3.03;;;;;;;;;;5066202;28;20043;-34
2024/02/04 13:33:40;;;;;;;13.60;2.42;;;;;;;;;;5074144;28;20023;-34
2024/02/04 13:36:08;;;;;;;11.40;2.90;;;;;;;;;;5074469;28;20017;-34
2024/02/04 13:38:36;;;;;;;14.27;2.30;;;;;;;;;;5074290;28;20032;-34
2024/02/04 13:41:06;;;;;;;15.02;2.72;;;;;;;;;;5074386;28;20588;-34
2024/02/04 13:43:33;;;;;;;18.15;2.90;;;;;;;;;;5074123;28;20111;-34
2024/02/04 13:46:02;;;;;;;19.00;2.95;;;;;;;;;;5074254;28;20032;-34
2024/02/04 13:48:29;;;;;;;16.38;2.58;;;;;;;;;;5074146;28;20095;-34
2024/02/04 13:50:56;;;;;;;15.00;2.45;;;;;;;;;;5074280;28;20102;-34
2024/02/04 13:53:23;;;;;;;21.55;2.60;;;;;;;;;;5074041;28;20039;-34
2024/02/04 13:55:50;;;;;;;17.00;2.80;;;;;;;;;;5074068;28;20032;-34
2024/02/04 13:58:22;;;;;;;16.80;2.80;;;;;;;;;;5074093;28;20024;-34
2024/02/04 14:00:49;;;;;;;15.60;2.65;;;;;;;;;;5073895;28;20114;-34
2024/02/04 14:03:16;;;;;;;20.10;2.85;;;;;;;;;;5074006;28;20037;-34
2024/02/04 14:05:43;;;;;;;18.70;2.92;;;;;;;;;;5073917;28;20091;-34
2024/02/04 14:08:10;;;;;;;14.88;2.45;;;;;;;;;;5073800;28;20025;-34
2024/02/04 14:10:38;;;;;;;19.65;3.33;;;;;;;;;;5057822;28;20121;-34
2024/02/04 14:13:05;;;;;;;35.60;3.67;;;;;;;;;;5071524;28;20048;-34
2024/02/04 14:15:32;;;;;;;29.58;3.85;;;;;;;;;;5073461;28;20032;-35
2024/02/04 14:18:00;;;;;;;30.48;4.72;;;;;;;;;;5073087;28;20036;-35
2024/02/04 14:20:27;;;;;;;26.23;4.65;;;;;;;;;;5062867;28;20034;-35
2024/02/04 14:22:54;;;;;;;25.63;3.92;;;;;;;;;;5063521;28;20038;-34
2024/02/04 14:25:21;;;;;;;23.90;3.50;;;;;;;;;;5061829;28;20419;-35
2024/02/04 14:27:48;;;;;;;24.33;3.08;;;;;;;;;;5062770;28;20024;-35
2024/02/04 14:30:15;;;;;;;15.55;3.10;;;;;;;;;;5063808;28;20032;-35